createdAt,value
2023-02-22T00:04:52.688Z,88.53
2023-02-22T00:07:21.355Z,88.55
2023-02-22T00:09:49.446Z,88.20
2023-02-22T00:12:17.319Z,88.30
2023-02-22T00:14:44.993Z,88.22
2023-02-22T00:17:13.473Z,88.30
2023-02-22T00:19:41.204Z,88.38
2023-02-22T00:22:10.259Z,88.32
2023-02-22T00:24:37.964Z,88.12
2023-02-22T00:27:05.761Z,88.22
2023-02-22T00:29:34.588Z,88.11
2023-02-22T00:32:02.358Z,88.20
2023-02-22T00:34:30.126Z,88.22
2023-02-22T00:36:57.820Z,88.11
2023-02-22T00:39:27.006Z,88.12
2023-02-22T00:41:54.730Z,88.19
2023-02-22T00:44:22.504Z,88.04
2023-02-22T00:46:50.642Z,87.98
2023-02-22T00:49:18.324Z,88.17
2023-02-22T00:51:46.149Z,87.97
2023-02-22T00:54:14.416Z,88.14
2023-02-22T00:56:43.841Z,87.89
2023-02-22T00:59:11.546Z,87.91
2023-02-22T01:01:39.384Z,87.97
2023-02-22T01:04:07.138Z,88.01
2023-02-22T01:06:35.183Z,87.84
2023-02-22T01:09:04.876Z,88.16
2023-02-22T01:11:32.622Z,88.07
2023-02-22T01:14:03.526Z,88.33
2023-02-22T01:16:31.325Z,88.28
2023-02-22T01:19:01.293Z,88.46
2023-02-22T01:21:29.118Z,88.50
2023-02-22T01:23:56.885Z,88.66
2023-02-22T01:26:24.642Z,88.85
2023-02-22T01:28:53.174Z,89.64
2023-02-22T01:31:24.038Z,89.88
2023-02-22T01:33:52.098Z,90.16
2023-02-22T01:36:19.803Z,90.58
2023-02-22T01:38:47.672Z,90.82
2023-02-22T01:41:18.390Z,91.28
2023-02-22T01:43:46.550Z,91.71
2023-02-22T01:46:25.519Z,92.02
2023-02-22T01:48:57.892Z,91.76
2023-02-22T01:51:29.464Z,91.99
2023-02-22T01:54:02.711Z,92.04
2023-02-22T01:56:33.785Z,92.22
2023-02-22T01:59:06.728Z,92.26
2023-02-22T02:01:37.354Z,92.68
2023-02-22T02:04:08.752Z,92.84
2023-02-22T02:06:38.053Z,92.97
2023-02-22T02:09:11.767Z,93.17
2023-02-22T02:11:41.390Z,93.18
2023-02-22T02:14:11.049Z,93.16
2023-02-22T02:16:42.917Z,93.16
2023-02-22T02:19:20.368Z,93.60
2023-02-22T02:22:13.763Z,94.00
2023-02-22T02:25:18.988Z,94.05
2023-02-22T02:28:06.885Z,94.16
2023-02-22T02:30:50.841Z,94.31
2023-02-22T02:33:27.009Z,94.17
2023-02-22T02:36:04.022Z,94.36
2023-02-22T02:38:40.363Z,94.15
2023-02-22T02:41:14.234Z,94.21
2023-02-22T02:43:48.997Z,94.26
2023-02-22T02:46:21.637Z,94.35
2023-02-22T02:48:56.672Z,94.47
2023-02-22T02:51:29.512Z,94.50
2023-02-22T02:53:58.454Z,94.27
2023-02-22T02:56:26.411Z,94.37
2023-02-22T02:58:55.603Z,94.51
2023-02-22T03:01:45.123Z,94.77
2023-02-22T03:04:29.730Z,94.85
2023-02-22T03:07:17.417Z,94.63
2023-02-22T03:10:00.765Z,94.74
2023-02-22T03:12:39.818Z,94.68
2023-02-22T03:15:21.980Z,94.93
2023-02-22T03:17:55.255Z,94.97
2023-02-22T03:20:31.745Z,95.11
2023-02-22T03:23:05.904Z,94.99
2023-02-22T03:25:39.517Z,95.13
2023-02-22T03:28:11.725Z,94.99
2023-02-22T03:30:44.238Z,95.32
2023-02-22T03:33:16.904Z,95.35
2023-02-22T03:35:51.421Z,95.05
2023-02-22T03:38:22.059Z,95.13
2023-02-22T03:40:55.322Z,95.43
2023-02-22T03:43:26.636Z,95.35
2023-02-22T03:45:59.440Z,95.53
2023-02-22T03:48:32.483Z,95.29
2023-02-22T03:51:04.912Z,95.53
2023-02-22T03:53:37.526Z,95.68
2023-02-22T03:56:10.409Z,95.43
2023-02-22T03:58:43.996Z,95.49
2023-02-22T04:01:12.887Z,95.83
2023-02-22T04:03:42.107Z,95.43
2023-02-22T04:06:11.637Z,95.55
2023-02-22T04:08:40.016Z,95.74
2023-02-22T04:11:08.654Z,95.59
2023-02-22T04:13:36.546Z,96.00
2023-02-22T04:16:04.521Z,95.90
2023-02-22T04:18:32.471Z,96.23
2023-02-22T04:21:01.352Z,96.37
2023-02-22T04:23:36.274Z,96.32
2023-02-22T04:26:04.532Z,96.74
2023-02-22T04:28:32.253Z,96.67
2023-02-22T04:31:10.119Z,96.53
2023-02-22T04:33:38.629Z,96.68
2023-02-22T04:36:07.567Z,96.30
2023-02-22T04:38:37.588Z,96.30
2023-02-22T04:41:05.575Z,96.18
2023-02-22T04:43:33.642Z,96.32
2023-02-22T04:46:08.643Z,96.30
2023-02-22T04:48:36.444Z,96.14
2023-02-22T04:51:04.336Z,96.35
2023-02-22T04:53:33.228Z,96.09
2023-02-22T04:56:02.694Z,96.35
2023-02-22T04:58:31.788Z,96.36
2023-02-22T05:00:59.673Z,96.18
2023-02-22T05:03:27.888Z,96.24
2023-02-22T05:05:55.770Z,96.09
2023-02-22T05:08:23.526Z,96.17
2023-02-22T05:10:51.331Z,96.20
2023-02-22T05:13:20.381Z,96.27
2023-02-22T05:15:48.803Z,96.22
2023-02-22T05:18:17.076Z,95.94
2023-02-22T05:20:44.776Z,96.22
2023-02-22T05:23:12.529Z,96.20
2023-02-22T05:25:40.242Z,95.99
2023-02-22T05:28:12.558Z,95.64
2023-02-22T05:30:42.040Z,95.92
2023-02-22T05:33:10.693Z,95.63
2023-02-22T05:35:38.467Z,95.49
2023-02-22T05:38:07.005Z,95.61
2023-02-22T05:40:35.152Z,95.42
2023-02-22T05:43:03.859Z,95.51
2023-02-22T05:45:31.579Z,95.33
2023-02-22T05:48:00.993Z,95.44
2023-02-22T05:50:28.782Z,95.56
2023-02-22T05:52:56.749Z,95.40
2023-02-22T05:55:24.957Z,95.21
2023-02-22T05:57:53.382Z,95.14
2023-02-22T06:00:23.431Z,95.30
2023-02-22T06:02:55.594Z,95.28
2023-02-22T06:05:25.125Z,95.54
2023-02-22T06:07:53.791Z,95.45
2023-02-22T06:10:21.901Z,95.68
2023-02-22T06:12:50.350Z,95.67
2023-02-22T06:15:19.761Z,95.70
2023-02-22T06:17:48.436Z,95.77
2023-02-22T06:20:18.736Z,95.71
2023-02-22T06:22:49.780Z,95.77
2023-02-22T06:25:20.052Z,96.00
2023-02-22T06:27:47.859Z,95.88
2023-02-22T06:30:18.959Z,95.73
2023-02-22T06:32:46.680Z,95.49
2023-02-22T06:35:16.179Z,95.74
2023-02-22T06:37:43.961Z,95.56
2023-02-22T06:40:14.293Z,95.80
2023-02-22T06:42:42.523Z,95.68
2023-02-22T06:45:11.263Z,95.51
2023-02-22T06:47:40.237Z,95.63
2023-02-22T06:50:09.619Z,95.63
2023-02-22T06:52:37.330Z,95.53
2023-02-22T06:55:05.429Z,95.75
2023-02-22T06:57:34.550Z,95.44
2023-02-22T07:00:02.240Z,95.54
2023-02-22T07:02:29.974Z,95.39
2023-02-22T07:04:57.690Z,95.45
2023-02-22T07:07:25.547Z,95.30
2023-02-22T07:09:53.295Z,95.11
2023-02-22T07:12:21.062Z,95.02
2023-02-22T07:14:50.126Z,95.04
2023-02-22T07:17:17.843Z,95.25
2023-02-22T07:19:45.528Z,94.93
2023-02-22T07:22:13.325Z,94.93
2023-02-22T07:24:41.127Z,95.13
2023-02-22T07:27:08.830Z,95.04
2023-02-22T07:29:36.611Z,94.86
2023-02-22T07:32:05.829Z,94.84
2023-02-22T07:34:33.573Z,94.81
2023-02-22T07:37:01.281Z,94.93
2023-02-22T07:39:28.962Z,94.86
2023-02-22T07:41:56.687Z,94.68
2023-02-22T07:44:25.164Z,94.61
2023-02-22T07:46:52.889Z,94.63
2023-02-22T07:49:22.047Z,94.77
2023-02-22T07:51:49.803Z,94.50
2023-02-22T07:54:17.737Z,94.81
2023-02-22T07:56:46.726Z,94.43
2023-02-22T07:59:14.643Z,94.27
2023-02-22T08:01:42.883Z,94.34
2023-02-22T08:04:10.604Z,94.08
2023-02-22T08:06:39.732Z,94.09
2023-02-22T08:09:07.702Z,93.94
2023-02-22T08:11:35.475Z,93.67
2023-02-22T08:14:03.253Z,93.70
2023-02-22T08:16:30.945Z,93.49
2023-02-22T08:18:58.625Z,93.24
2023-02-22T08:21:26.448Z,93.06
2023-02-22T08:23:55.948Z,92.90
2023-02-22T08:26:25.301Z,92.78
2023-02-22T08:28:53.078Z,92.67
2023-02-22T08:31:20.983Z,92.56
2023-02-22T08:33:50.042Z,92.29
2023-02-22T08:36:18.581Z,91.98
2023-02-22T08:38:46.317Z,91.70
2023-02-22T08:41:15.630Z,91.56
2023-02-22T08:43:43.476Z,91.32
2023-02-22T08:46:11.307Z,91.12
2023-02-22T08:48:39.020Z,90.91
2023-02-22T08:51:07.080Z,90.63
2023-02-22T08:53:34.857Z,89.99
2023-02-22T08:56:02.582Z,90.15
2023-02-22T08:58:31.666Z,90.15
2023-02-22T09:00:59.386Z,89.83
2023-02-22T09:03:27.133Z,89.79
2023-02-22T09:05:55.448Z,89.52
2023-02-22T09:08:23.262Z,89.18
2023-02-22T09:10:51.801Z,89.05
2023-02-22T09:13:20.648Z,88.90
2023-02-22T09:15:49.793Z,88.63
2023-02-22T09:18:18.068Z,88.32
2023-02-22T09:20:45.847Z,88.54
2023-02-22T09:23:14.418Z,88.55
2023-02-22T09:25:42.185Z,88.61
2023-02-22T09:28:10.575Z,88.06
2023-02-22T09:30:38.738Z,88.02
2023-02-22T09:33:10.658Z,87.47
2023-02-22T09:35:42.365Z,85.68
2023-02-22T09:38:11.312Z,85.34
2023-02-22T09:40:45.105Z,82.85
2023-02-22T09:43:32.146Z,81.32
2023-02-22T09:46:12.059Z,81.55
2023-02-22T09:48:53.445Z,80.16
2023-02-22T09:51:27.452Z,80.04
2023-02-22T09:53:59.048Z,79.84
2023-02-22T09:56:27.999Z,78.85
2023-02-22T09:58:58.029Z,78.06
2023-02-22T10:01:29.140Z,77.94
2023-02-22T10:04:04.164Z,77.51
2023-02-22T10:06:34.693Z,77.09
2023-02-22T10:09:07.865Z,77.17
2023-02-22T10:11:50.313Z,75.30
2023-02-22T10:14:44.234Z,74.91
2023-02-22T10:17:22.291Z,76.16
2023-02-22T10:20:06.051Z,75.16
2023-02-22T10:22:45.905Z,74.79
2023-02-22T10:25:17.964Z,76.04
2023-02-22T10:27:49.220Z,76.15
2023-02-22T10:30:25.417Z,74.58
2023-02-22T10:32:55.761Z,74.15
2023-02-22T10:35:27.487Z,75.41
2023-02-22T10:37:59.901Z,75.58
2023-02-22T10:40:33.009Z,75.98
2023-02-22T10:43:05.902Z,75.65
2023-02-22T10:45:37.050Z,75.43
2023-02-22T10:48:08.516Z,75.71
2023-02-22T10:50:40.809Z,75.44
2023-02-22T10:53:09.379Z,75.74
2023-02-22T10:55:39.049Z,75.03
2023-02-22T10:58:08.843Z,74.67
2023-02-22T11:00:38.225Z,73.69
2023-02-22T11:03:17.573Z,73.97
2023-02-22T11:05:46.863Z,73.81
2023-02-22T11:08:17.008Z,72.76
2023-02-22T11:10:44.741Z,72.02
2023-02-22T11:13:19.683Z,71.65
2023-02-22T11:15:47.942Z,71.57
2023-02-22T11:18:26.355Z,70.24
2023-02-22T11:21:07.653Z,69.67
2023-02-22T11:23:36.262Z,70.23
2023-02-22T11:26:08.393Z,69.61
2023-02-22T11:28:38.365Z,69.83
2023-02-22T11:31:17.383Z,67.88
2023-02-22T11:33:52.601Z,67.60
2023-02-22T11:36:43.939Z,66.03
2023-02-22T11:39:23.978Z,66.38
2023-02-22T11:41:52.215Z,67.95
2023-02-22T11:44:25.749Z,67.27
2023-02-22T11:46:55.845Z,68.31
2023-02-22T11:49:33.220Z,68.27
2023-02-22T11:52:19.271Z,64.98
2023-02-22T11:55:07.340Z,65.29
2023-02-22T11:57:49.707Z,64.44
2023-02-22T12:00:25.516Z,64.94
2023-02-22T12:03:14.648Z,64.05
2023-02-22T12:05:59.588Z,63.76
2023-02-22T12:08:37.906Z,62.96
2023-02-22T12:11:12.839Z,64.25
2023-02-22T12:13:59.962Z,62.82
2023-02-22T12:16:36.270Z,63.74
2023-02-22T12:19:12.553Z,63.86
2023-02-22T12:21:44.116Z,62.85
2023-02-22T12:24:18.571Z,62.16
2023-02-22T12:26:51.119Z,61.78
2023-02-22T12:29:27.614Z,62.47
2023-02-22T12:31:58.439Z,57.87
2023-02-22T12:34:34.173Z,60.09
2023-02-22T12:37:08.546Z,60.94
2023-02-22T12:39:53.422Z,58.91
2023-02-22T12:42:29.209Z,60.13
2023-02-22T12:45:01.197Z,59.98
2023-02-22T12:47:37.718Z,59.18
2023-02-22T12:50:08.978Z,56.45
2023-02-22T12:52:45.819Z,59.74
2023-02-22T12:55:19.331Z,58.92
2023-02-22T12:57:52.724Z,60.55
2023-02-22T13:00:26.181Z,61.04
2023-02-22T13:03:00.080Z,60.71
2023-02-22T13:05:31.429Z,61.54
2023-02-22T13:08:15.387Z,60.29
2023-02-22T13:11:09.483Z,61.07
2023-02-22T13:13:47.043Z,61.70
2023-02-22T13:16:27.988Z,61.15
2023-02-22T13:19:03.733Z,62.11
2023-02-22T13:21:44.295Z,60.44
2023-02-22T13:24:20.484Z,60.05
2023-02-22T13:26:53.708Z,60.03
2023-02-22T13:29:28.387Z,61.72
2023-02-22T13:32:15.628Z,62.40
2023-02-22T13:35:06.691Z,62.25
2023-02-22T13:37:57.527Z,63.41
2023-02-22T13:40:56.172Z,62.85
2023-02-22T13:43:44.255Z,62.88
2023-02-22T13:46:27.794Z,63.03
2023-02-22T13:49:16.922Z,62.76
2023-02-22T13:51:49.407Z,63.57
2023-02-22T13:54:24.601Z,63.44
2023-02-22T13:56:55.122Z,63.61
2023-02-22T13:59:27.873Z,63.36
2023-02-22T14:01:56.707Z,63.68
2023-02-22T14:04:45.573Z,62.11
2023-02-22T14:07:49.758Z,61.84
2023-02-22T14:10:56.124Z,62.19
2023-02-22T14:13:26.588Z,63.41
2023-02-22T14:16:25.258Z,62.37
2023-02-22T14:19:06.290Z,63.54
2023-02-22T14:21:35.593Z,64.02
2023-02-22T14:24:13.374Z,63.92
2023-02-22T14:26:53.926Z,64.74
2023-02-22T14:29:21.698Z,65.17
2023-02-22T14:32:10.622Z,64.96
2023-02-22T14:34:58.346Z,64.93
2023-02-22T14:37:28.577Z,65.78
2023-02-22T14:40:12.568Z,65.87
2023-02-22T14:42:45.102Z,66.21
2023-02-22T14:45:20.748Z,66.42
2023-02-22T14:48:01.013Z,66.83
2023-02-22T14:50:38.514Z,67.06
2023-02-22T14:53:14.295Z,67.05
2023-02-22T14:55:44.589Z,67.50
2023-02-22T14:58:18.685Z,67.91
2023-02-22T15:00:48.770Z,68.01
2023-02-22T15:03:32.675Z,67.90
2023-02-22T15:06:06.259Z,67.79
2023-02-22T15:08:34.517Z,68.19
2023-02-22T15:11:03.453Z,68.29
2023-02-22T15:13:34.207Z,68.14
2023-02-22T15:16:04.254Z,68.38
2023-02-22T15:18:39.652Z,68.80
2023-02-22T15:21:15.433Z,69.14
2023-02-22T15:23:46.086Z,69.14
2023-02-22T15:26:19.226Z,69.55
2023-02-22T15:28:48.319Z,69.54
2023-02-22T15:31:30.140Z,70.02
2023-02-22T15:34:11.670Z,70.01
2023-02-22T15:36:39.510Z,70.67
2023-02-22T15:39:08.823Z,70.64
2023-02-22T15:41:36.741Z,70.62
2023-02-22T15:44:17.745Z,70.91
2023-02-22T15:46:49.430Z,70.83
2023-02-22T15:49:24.317Z,71.00
2023-02-22T15:52:04.551Z,71.38
2023-02-22T15:54:40.541Z,71.58
2023-02-22T15:57:08.382Z,71.73
2023-02-22T15:59:45.058Z,71.84
2023-02-22T16:02:34.129Z,72.24
2023-02-22T16:05:06.931Z,72.62
2023-02-22T16:07:41.898Z,72.95
2023-02-22T16:10:22.792Z,72.93
2023-02-22T16:12:50.610Z,73.16
2023-02-22T16:15:19.659Z,73.66
2023-02-22T16:18:01.552Z,73.60
2023-02-22T16:20:33.588Z,74.22
2023-02-22T16:23:01.619Z,74.76
2023-02-22T16:25:35.668Z,75.12
2023-02-22T16:28:24.508Z,75.43
2023-02-22T16:30:58.462Z,76.04
2023-02-22T16:33:29.773Z,76.41
2023-02-22T16:35:58.981Z,76.51
2023-02-22T16:38:27.490Z,76.86
2023-02-22T16:40:58.215Z,77.41
2023-02-22T16:43:29.841Z,77.55
2023-02-22T16:45:57.596Z,77.85
2023-02-22T16:48:26.761Z,78.25
2023-02-22T16:50:56.402Z,78.45
2023-02-22T16:53:31.599Z,79.06
2023-02-22T16:56:04.349Z,79.31
2023-02-22T16:58:34.886Z,79.47
2023-02-22T17:03:30.445Z,79.94
2023-02-22T17:05:58.307Z,80.26
2023-02-22T17:08:27.427Z,80.37
2023-02-22T17:10:56.677Z,80.54
2023-02-22T17:13:27.610Z,80.71
2023-02-22T17:15:55.716Z,80.89
2023-02-22T17:18:28.512Z,81.28
2023-02-22T17:20:57.254Z,81.20
2023-02-22T17:23:27.502Z,81.54
2023-02-22T17:25:59.161Z,81.77
2023-02-22T17:28:27.839Z,81.87
2023-02-22T17:31:01.361Z,82.09
2023-02-22T17:33:32.924Z,82.37
2023-02-22T17:36:02.837Z,82.57
2023-02-22T17:38:32.236Z,82.68
2023-02-22T17:41:01.626Z,82.77
2023-02-22T17:43:30.015Z,82.81
2023-02-22T17:45:58.334Z,82.93
2023-02-22T17:48:26.748Z,83.04
2023-02-22T17:50:54.600Z,82.98
2023-02-22T17:53:24.680Z,83.47
2023-02-22T17:55:52.890Z,83.67
2023-02-22T17:58:23.612Z,83.92
2023-02-22T18:00:53.210Z,84.00
2023-02-22T18:03:25.659Z,83.85
2023-02-22T18:05:56.321Z,84.41
2023-02-22T18:08:24.930Z,84.50
2023-02-22T18:10:56.612Z,84.35
2023-02-22T18:13:27.958Z,84.52
2023-02-22T18:15:59.860Z,84.68
2023-02-22T18:18:28.291Z,84.61
2023-02-22T18:20:59.787Z,84.57
2023-02-22T18:23:29.552Z,85.02
2023-02-22T18:26:10.169Z,84.74
2023-02-22T18:28:40.922Z,84.92
2023-02-22T18:31:10.070Z,84.79
2023-02-22T18:33:37.945Z,84.94
2023-02-22T18:36:06.427Z,84.95
2023-02-22T18:38:34.205Z,84.77
2023-02-22T18:41:03.461Z,84.59
2023-02-22T18:43:34.164Z,84.56
2023-02-22T18:46:10.763Z,85.02
2023-02-22T18:48:38.905Z,85.44
2023-02-22T18:51:12.032Z,84.89
2023-02-22T18:53:41.234Z,84.85
2023-02-22T18:56:11.082Z,84.81
2023-02-22T18:58:39.678Z,84.57
2023-02-22T19:01:09.923Z,84.63
2023-02-22T19:03:38.900Z,84.52
2023-02-22T19:06:09.620Z,84.31
2023-02-22T19:08:39.584Z,84.39
2023-02-22T19:11:09.191Z,84.13
2023-02-22T19:13:37.081Z,84.09
2023-02-22T19:16:07.241Z,84.03
2023-02-22T19:18:37.500Z,83.93
2023-02-22T19:21:08.924Z,83.64
2023-02-22T19:23:38.110Z,83.45
2023-02-22T19:26:09.399Z,83.42
2023-02-22T19:28:37.155Z,83.48
2023-02-22T19:31:13.395Z,83.56
2023-02-22T19:33:42.990Z,83.68
2023-02-22T19:36:12.425Z,83.64
2023-02-22T19:38:40.649Z,83.57
2023-02-22T19:41:10.338Z,83.34
2023-02-22T19:43:38.295Z,83.51
2023-02-22T19:46:06.815Z,83.34
2023-02-22T19:48:35.524Z,83.29
2023-02-22T19:51:06.270Z,83.43
2023-02-22T19:53:34.378Z,83.39
2023-02-22T19:56:06.975Z,83.35
2023-02-22T19:58:36.644Z,83.38
2023-02-22T20:01:12.184Z,83.41
2023-02-22T20:03:40.979Z,83.40
2023-02-22T20:06:10.760Z,83.21
2023-02-22T20:08:41.982Z,83.43
2023-02-22T20:11:10.698Z,83.68
2023-02-22T20:13:38.777Z,83.85
2023-02-22T20:16:07.690Z,83.74
2023-02-22T20:18:36.550Z,83.90
2023-02-22T20:21:08.435Z,84.21
2023-02-22T20:23:40.084Z,84.24
2023-02-22T20:26:16.136Z,84.28
2023-02-22T20:28:43.888Z,84.07
2023-02-22T20:31:13.746Z,84.30
2023-02-22T20:33:42.688Z,84.15
2023-02-22T20:36:12.418Z,84.12
2023-02-22T20:38:41.645Z,84.27
2023-02-22T20:41:12.795Z,84.19
2023-02-22T20:43:40.790Z,84.10
2023-02-22T20:46:09.042Z,84.27
2023-02-22T20:48:37.126Z,84.08
2023-02-22T20:51:08.977Z,84.23
2023-02-22T20:53:39.344Z,84.12
2023-02-22T20:56:12.304Z,84.47
2023-02-22T20:58:40.103Z,84.59
2023-02-22T21:01:11.912Z,84.61
2023-02-22T21:03:40.757Z,84.72
2023-02-22T21:06:09.989Z,84.90
2023-02-22T21:08:37.736Z,84.92
2023-02-22T21:11:12.787Z,84.89
2023-02-22T21:13:40.559Z,84.63
2023-02-22T21:16:10.321Z,84.92
2023-02-22T21:18:38.405Z,84.86
2023-02-22T21:21:10.112Z,84.90
2023-02-22T21:23:38.269Z,84.72
2023-02-22T21:26:07.074Z,84.94
2023-02-22T21:28:52.817Z,85.10
2023-02-22T21:31:22.904Z,85.23
2023-02-22T21:33:52.546Z,85.49
2023-02-22T21:36:24.917Z,85.37
2023-02-22T21:38:55.115Z,85.33
2023-02-22T21:41:27.563Z,85.47
2023-02-22T21:43:57.818Z,85.79
2023-02-22T21:46:26.395Z,86.16
2023-02-22T21:48:54.200Z,85.88
2023-02-22T21:51:23.599Z,86.14
2023-02-22T21:53:53.519Z,86.12
2023-02-22T21:56:24.215Z,86.40
2023-02-22T21:58:59.697Z,86.50
2023-02-22T22:01:28.383Z,86.67
2023-02-22T22:03:59.706Z,86.78
2023-02-22T22:06:28.621Z,86.78
2023-02-22T22:08:57.243Z,86.68
2023-02-22T22:11:25.269Z,86.74
2023-02-22T22:13:56.935Z,86.78
2023-02-22T22:16:29.766Z,86.73
2023-02-22T22:18:58.247Z,86.68
2023-02-22T22:21:26.679Z,86.62
2023-02-22T22:23:56.091Z,86.68
2023-02-22T22:26:25.410Z,86.88
2023-02-22T22:28:56.210Z,87.13
2023-02-22T22:31:26.819Z,87.16
2023-02-22T22:33:56.189Z,87.25
2023-02-22T22:36:25.981Z,87.30
2023-02-22T22:38:57.265Z,87.03
2023-02-22T22:41:27.966Z,87.50
2023-02-22T22:43:56.092Z,87.38
2023-02-22T22:46:24.247Z,87.86
2023-02-22T22:48:53.402Z,88.10
2023-02-22T22:51:22.593Z,88.18
2023-02-22T22:53:51.961Z,87.88
2023-02-22T22:56:25.883Z,88.07
2023-02-22T22:58:55.176Z,88.31
2023-02-22T23:01:27.256Z,88.20
2023-02-22T23:04:01.575Z,88.27
2023-02-22T23:06:32.933Z,87.74
2023-02-22T23:09:10.297Z,88.04
2023-02-22T23:11:44.150Z,88.13
2023-02-22T23:14:13.294Z,88.38
2023-02-22T23:16:42.500Z,88.41
2023-02-22T23:19:11.589Z,88.70
2023-02-22T23:21:42.666Z,88.72
2023-02-22T23:24:10.822Z,88.97
2023-02-22T23:26:38.549Z,88.92
2023-02-22T23:29:08.717Z,88.71
2023-02-22T23:31:39.567Z,88.93
2023-02-22T23:34:11.147Z,88.99
2023-02-22T23:36:44.208Z,89.30
2023-02-22T23:39:12.436Z,89.31
2023-02-22T23:41:40.173Z,89.11
2023-02-22T23:44:08.527Z,89.52
2023-02-22T23:46:36.524Z,89.41
2023-02-22T23:49:05.578Z,89.31
2023-02-22T23:51:39.229Z,89.37
2023-02-22T23:54:09.778Z,89.63
2023-02-22T23:56:40.259Z,89.99
2023-02-22T23:59:11.213Z,90.03
